sensor_id;sensor_type;location;lat;lon;timestamp;P1;durP1;ratioP1;P2;durP2;ratioP2
53835;SDS011;39737;43.334;21.936;2023-10-08T00:02:44;6.93;;;3.55;;
53835;SDS011;39737;43.334;21.936;2023-10-08T00:05:34;7.10;;;3.63;;
53835;SDS011;39737;43.334;21.936;2023-10-08T00:08:22;6.38;;;3.85;;
53835;SDS011;39737;43.334;21.936;2023-10-08T00:11:09;9.93;;;3.40;;
53835;SDS011;39737;43.334;21.936;2023-10-08T00:13:58;6.18;;;3.53;;
53835;SDS011;39737;43.334;21.936;2023-10-08T00:16:47;5.47;;;3.53;;
53835;SDS011;39737;43.334;21.936;2023-10-08T00:19:35;7.40;;;3.50;;
53835;SDS011;39737;43.334;21.936;2023-10-08T00:22:23;11.32;;;3.78;;
53835;SDS011;39737;43.334;21.936;2023-10-08T00:25:11;5.70;;;3.33;;
53835;SDS011;39737;43.334;21.936;2023-10-08T00:27:57;8.77;;;4.22;;
53835;SDS011;39737;43.334;21.936;2023-10-08T00:30:44;9.45;;;3.70;;
53835;SDS011;39737;43.334;21.936;2023-10-08T00:33:30;6.20;;;3.60;;
53835;SDS011;39737;43.334;21.936;2023-10-08T00:36:16;4.82;;;3.63;;
53835;SDS011;39737;43.334;21.936;2023-10-08T00:39:06;8.32;;;3.80;;
53835;SDS011;39737;43.334;21.936;2023-10-08T00:44:54;5.53;;;2.97;;
53835;SDS011;39737;43.334;21.936;2023-10-08T00:47:41;10.00;;;3.05;;
53835;SDS011;39737;43.334;21.936;2023-10-08T00:50:31;6.60;;;3.13;;
53835;SDS011;39737;43.334;21.936;2023-10-08T00:54:06;15.18;;;3.60;;
53835;SDS011;39737;43.334;21.936;2023-10-08T00:56:53;7.15;;;4.00;;
53835;SDS011;39737;43.334;21.936;2023-10-08T00:59:44;7.55;;;3.40;;
53835;SDS011;39737;43.334;21.936;2023-10-08T01:02:35;6.75;;;3.47;;
53835;SDS011;39737;43.334;21.936;2023-10-08T01:05:33;7.72;;;3.90;;
53835;SDS011;39737;43.334;21.936;2023-10-08T01:08:28;7.80;;;3.70;;
53835;SDS011;39737;43.334;21.936;2023-10-08T01:11:34;6.68;;;3.78;;
53835;SDS011;39737;43.334;21.936;2023-10-08T01:14:33;0.47;;;0.47;;
53835;SDS011;39737;43.334;21.936;2023-10-08T01:22:24;0.50;;;0.50;;
53835;SDS011;39737;43.334;21.936;2023-10-08T01:25:14;0.30;;;0.30;;
53835;SDS011;39737;43.334;21.936;2023-10-08T01:28:09;5.25;;;3.40;;
53835;SDS011;39737;43.334;21.936;2023-10-08T01:31:05;6.47;;;3.47;;
53835;SDS011;39737;43.334;21.936;2023-10-08T01:33:54;0.45;;;0.40;;
53835;SDS011;39737;43.334;21.936;2023-10-08T01:36:43;0.30;;;0.30;;
53835;SDS011;39737;43.334;21.936;2023-10-08T01:39:32;0.65;;;0.65;;
53835;SDS011;39737;43.334;21.936;2023-10-08T01:42:19;6.68;;;3.40;;
53835;SDS011;39737;43.334;21.936;2023-10-08T01:45:08;5.82;;;3.42;;
53835;SDS011;39737;43.334;21.936;2023-10-08T01:47:59;8.73;;;3.25;;
53835;SDS011;39737;43.334;21.936;2023-10-08T01:50:46;1.42;;;1.33;;
53835;SDS011;39737;43.334;21.936;2023-10-08T01:53:34;3.25;;;1.25;;
53835;SDS011;39737;43.334;21.936;2023-10-08T01:56:22;0.88;;;0.88;;
53835;SDS011;39737;43.334;21.936;2023-10-08T01:59:12;13.05;;;3.78;;
53835;SDS011;39737;43.334;21.936;2023-10-08T02:02:00;0.85;;;0.85;;
53835;SDS011;39737;43.334;21.936;2023-10-08T02:04:48;0.20;;;0.20;;
53835;SDS011;39737;43.334;21.936;2023-10-08T02:07:34;0.40;;;0.40;;
53835;SDS011;39737;43.334;21.936;2023-10-08T02:10:21;1.13;;;0.98;;
53835;SDS011;39737;43.334;21.936;2023-10-08T02:13:08;0.50;;;0.50;;
53835;SDS011;39737;43.334;21.936;2023-10-08T02:15:56;2.67;;;1.17;;
53835;SDS011;39737;43.334;21.936;2023-10-08T02:18:42;0.38;;;0.38;;
53835;SDS011;39737;43.334;21.936;2023-10-08T02:21:28;5.80;;;2.90;;
53835;SDS011;39737;43.334;21.936;2023-10-08T02:24:15;1.70;;;0.82;;
53835;SDS011;39737;43.334;21.936;2023-10-08T02:27:01;1.08;;;1.05;;
53835;SDS011;39737;43.334;21.936;2023-10-08T02:29:47;6.35;;;3.30;;
53835;SDS011;39737;43.334;21.936;2023-10-08T02:32:33;1.33;;;0.73;;
53835;SDS011;39737;43.334;21.936;2023-10-08T02:35:20;0.30;;;0.30;;
53835;SDS011;39737;43.334;21.936;2023-10-08T02:38:06;0.75;;;0.75;;
53835;SDS011;39737;43.334;21.936;2023-10-08T02:40:55;1.05;;;0.75;;
53835;SDS011;39737;43.334;21.936;2023-10-08T02:43:43;6.82;;;1.42;;
53835;SDS011;39737;43.334;21.936;2023-10-08T02:46:30;0.43;;;0.43;;
53835;SDS011;39737;43.334;21.936;2023-10-08T02:49:19;0.38;;;0.38;;
53835;SDS011;39737;43.334;21.936;2023-10-08T02:52:06;0.30;;;0.30;;
53835;SDS011;39737;43.334;21.936;2023-10-08T02:54:54;0.30;;;0.30;;
53835;SDS011;39737;43.334;21.936;2023-10-08T02:57:40;0.85;;;0.85;;
53835;SDS011;39737;43.334;21.936;2023-10-08T03:00:36;0.80;;;0.80;;
53835;SDS011;39737;43.334;21.936;2023-10-08T03:03:26;0.30;;;0.30;;
53835;SDS011;39737;43.334;21.936;2023-10-08T03:06:14;0.40;;;0.40;;
53835;SDS011;39737;43.334;21.936;2023-10-08T03:09:01;1.35;;;1.25;;
53835;SDS011;39737;43.334;21.936;2023-10-08T03:11:50;0.47;;;0.47;;
53835;SDS011;39737;43.334;21.936;2023-10-08T03:14:37;2.83;;;2.05;;
53835;SDS011;39737;43.334;21.936;2023-10-08T03:17:35;0.40;;;0.40;;
53835;SDS011;39737;43.334;21.936;2023-10-08T03:20:26;1.10;;;0.63;;
53835;SDS011;39737;43.334;21.936;2023-10-08T03:23:28;0.63;;;0.63;;
53835;SDS011;39737;43.334;21.936;2023-10-08T03:26:22;1.45;;;1.35;;
53835;SDS011;39737;43.334;21.936;2023-10-08T03:29:17;0.50;;;0.50;;
53835;SDS011;39737;43.334;21.936;2023-10-08T03:32:04;1.42;;;1.33;;
53835;SDS011;39737;43.334;21.936;2023-10-08T03:34:51;0.30;;;0.30;;
53835;SDS011;39737;43.334;21.936;2023-10-08T03:37:40;1.42;;;1.17;;
53835;SDS011;39737;43.334;21.936;2023-10-08T03:40:36;0.35;;;0.35;;
53835;SDS011;39737;43.334;21.936;2023-10-08T03:43:29;0.63;;;0.63;;
53835;SDS011;39737;43.334;21.936;2023-10-08T03:46:32;0.75;;;0.75;;
53835;SDS011;39737;43.334;21.936;2023-10-08T03:49:25;0.75;;;0.75;;
53835;SDS011;39737;43.334;21.936;2023-10-08T03:52:11;1.70;;;1.05;;
53835;SDS011;39737;43.334;21.936;2023-10-08T03:54:58;1.70;;;1.65;;
53835;SDS011;39737;43.334;21.936;2023-10-08T04:01:21;1.85;;;1.75;;
53835;SDS011;39737;43.334;21.936;2023-10-08T04:04:07;0.30;;;0.30;;
53835;SDS011;39737;43.334;21.936;2023-10-08T04:07:00;0.73;;;0.73;;
53835;SDS011;39737;43.334;21.936;2023-10-08T04:10:06;1.45;;;0.60;;
53835;SDS011;39737;43.334;21.936;2023-10-08T04:12:56;0.63;;;0.60;;
53835;SDS011;39737;43.334;21.936;2023-10-08T04:15:42;1.02;;;0.95;;
53835;SDS011;39737;43.334;21.936;2023-10-08T04:18:28;0.63;;;0.57;;
53835;SDS011;39737;43.334;21.936;2023-10-08T04:21:14;0.80;;;0.80;;
53835;SDS011;39737;43.334;21.936;2023-10-08T04:24:02;1.23;;;1.13;;
53835;SDS011;39737;43.334;21.936;2023-10-08T04:26:51;0.30;;;0.30;;
53835;SDS011;39737;43.334;21.936;2023-10-08T04:29:38;0.85;;;0.50;;
53835;SDS011;39737;43.334;21.936;2023-10-08T04:32:24;0.57;;;0.57;;
53835;SDS011;39737;43.334;21.936;2023-10-08T04:35:11;0.85;;;0.85;;
53835;SDS011;39737;43.334;21.936;2023-10-08T04:38:00;0.50;;;0.50;;
53835;SDS011;39737;43.334;21.936;2023-10-08T04:40:49;0.93;;;0.88;;
53835;SDS011;39737;43.334;21.936;2023-10-08T04:43:38;0.75;;;0.75;;
53835;SDS011;39737;43.334;21.936;2023-10-08T04:46:24;0.47;;;0.47;;
53835;SDS011;39737;43.334;21.936;2023-10-08T04:49:25;0.52;;;0.52;;
53835;SDS011;39737;43.334;21.936;2023-10-08T04:52:15;0.30;;;0.30;;
53835;SDS011;39737;43.334;21.936;2023-10-08T04:55:01;0.90;;;0.75;;
53835;SDS011;39737;43.334;21.936;2023-10-08T04:57:59;0.60;;;0.60;;
53835;SDS011;39737;43.334;21.936;2023-10-08T05:01:04;2.10;;;1.15;;
53835;SDS011;39737;43.334;21.936;2023-10-08T05:04:09;1.08;;;0.70;;
53835;SDS011;39737;43.334;21.936;2023-10-08T05:07:11;0.20;;;0.20;;
53835;SDS011;39737;43.334;21.936;2023-10-08T05:10:07;0.70;;;0.70;;
53835;SDS011;39737;43.334;21.936;2023-10-08T05:12:53;0.68;;;0.68;;
53835;SDS011;39737;43.334;21.936;2023-10-08T05:15:51;0.52;;;0.32;;
53835;SDS011;39737;43.334;21.936;2023-10-08T05:18:56;0.40;;;0.40;;
53835;SDS011;39737;43.334;21.936;2023-10-08T05:22:20;0.45;;;0.45;;
53835;SDS011;39737;43.334;21.936;2023-10-08T05:25:07;1.02;;;1.02;;
53835;SDS011;39737;43.334;21.936;2023-10-08T05:27:53;0.40;;;0.40;;
53835;SDS011;39737;43.334;21.936;2023-10-08T05:30:43;9.20;;;3.40;;
53835;SDS011;39737;43.334;21.936;2023-10-08T05:33:41;6.18;;;3.95;;
53835;SDS011;39737;43.334;21.936;2023-10-08T05:36:33;0.20;;;0.20;;
53835;SDS011;39737;43.334;21.936;2023-10-08T05:39:37;4.00;;;2.88;;
53835;SDS011;39737;43.334;21.936;2023-10-08T05:42:25;8.98;;;3.92;;
53835;SDS011;39737;43.334;21.936;2023-10-08T05:45:14;8.68;;;4.05;;
53835;SDS011;39737;43.334;21.936;2023-10-08T05:48:17;3.20;;;2.15;;
53835;SDS011;39737;43.334;21.936;2023-10-08T05:51:13;0.30;;;0.30;;
53835;SDS011;39737;43.334;21.936;2023-10-08T05:54:11;7.28;;;3.40;;
53835;SDS011;39737;43.334;21.936;2023-10-08T05:57:10;6.00;;;3.60;;
53835;SDS011;39737;43.334;21.936;2023-10-08T05:59:58;4.72;;;2.88;;
53835;SDS011;39737;43.334;21.936;2023-10-08T06:02:44;4.88;;;2.70;;
53835;SDS011;39737;43.334;21.936;2023-10-08T06:05:30;5.88;;;3.08;;
53835;SDS011;39737;43.334;21.936;2023-10-08T06:08:29;5.10;;;2.97;;
53835;SDS011;39737;43.334;21.936;2023-10-08T06:11:35;6.85;;;3.05;;
53835;SDS011;39737;43.334;21.936;2023-10-08T06:14:27;6.47;;;2.75;;
53835;SDS011;39737;43.334;21.936;2023-10-08T06:17:33;10.88;;;4.05;;
53835;SDS011;39737;43.334;21.936;2023-10-08T06:20:41;6.45;;;3.22;;
53835;SDS011;39737;43.334;21.936;2023-10-08T06:23:31;10.70;;;2.85;;
53835;SDS011;39737;43.334;21.936;2023-10-08T06:26:21;4.55;;;2.63;;
53835;SDS011;39737;43.334;21.936;2023-10-08T06:29:11;8.77;;;3.17;;
53835;SDS011;39737;43.334;21.936;2023-10-08T06:34:59;4.88;;;3.10;;
53835;SDS011;39737;43.334;21.936;2023-10-08T06:37:48;9.68;;;4.22;;
53835;SDS011;39737;43.334;21.936;2023-10-08T06:40:35;6.68;;;3.47;;
53835;SDS011;39737;43.334;21.936;2023-10-08T06:43:24;9.85;;;4.05;;
53835;SDS011;39737;43.334;21.936;2023-10-08T06:46:10;7.53;;;3.42;;
53835;SDS011;39737;43.334;21.936;2023-10-08T06:49:01;5.90;;;3.55;;
53835;SDS011;39737;43.334;21.936;2023-10-08T06:51:51;10.07;;;4.35;;
53835;SDS011;39737;43.334;21.936;2023-10-08T06:54:37;7.95;;;3.95;;
53835;SDS011;39737;43.334;21.936;2023-10-08T06:57:23;10.43;;;4.50;;
53835;SDS011;39737;43.334;21.936;2023-10-08T07:00:12;12.85;;;4.43;;
53835;SDS011;39737;43.334;21.936;2023-10-08T07:03:19;14.07;;;4.68;;
53835;SDS011;39737;43.334;21.936;2023-10-08T07:06:06;8.55;;;3.97;;
53835;SDS011;39737;43.334;21.936;2023-10-08T07:09:16;10.80;;;4.00;;
53835;SDS011;39737;43.334;21.936;2023-10-08T07:12:08;10.13;;;3.67;;
53835;SDS011;39737;43.334;21.936;2023-10-08T07:15:00;6.67;;;3.37;;
53835;SDS011;39737;43.334;21.936;2023-10-08T07:17:47;7.00;;;3.97;;
53835;SDS011;39737;43.334;21.936;2023-10-08T07:20:46;7.57;;;3.53;;
53835;SDS011;39737;43.334;21.936;2023-10-08T07:23:51;6.53;;;3.35;;
53835;SDS011;39737;43.334;21.936;2023-10-08T07:26:45;7.28;;;3.65;;
53835;SDS011;39737;43.334;21.936;2023-10-08T07:29:35;8.13;;;3.95;;
53835;SDS011;39737;43.334;21.936;2023-10-08T07:32:21;10.95;;;4.15;;
53835;SDS011;39737;43.334;21.936;2023-10-08T07:35:07;12.93;;;4.47;;
53835;SDS011;39737;43.334;21.936;2023-10-08T07:38:05;7.28;;;3.45;;
53835;SDS011;39737;43.334;21.936;2023-10-08T07:40:55;8.45;;;3.90;;
53835;SDS011;39737;43.334;21.936;2023-10-08T07:43:42;8.05;;;3.33;;
53835;SDS011;39737;43.334;21.936;2023-10-08T07:46:28;8.45;;;3.47;;
53835;SDS011;39737;43.334;21.936;2023-10-08T07:49:14;8.93;;;3.67;;
53835;SDS011;39737;43.334;21.936;2023-10-08T07:52:00;7.70;;;4.55;;
53835;SDS011;39737;43.334;21.936;2023-10-08T07:54:47;12.07;;;4.25;;
53835;SDS011;39737;43.334;21.936;2023-10-08T07:57:33;8.55;;;5.05;;
53835;SDS011;39737;43.334;21.936;2023-10-08T08:00:19;11.00;;;4.60;;
53835;SDS011;39737;43.334;21.936;2023-10-08T08:03:10;5.80;;;3.25;;
53835;SDS011;39737;43.334;21.936;2023-10-08T08:05:57;6.28;;;3.88;;
53835;SDS011;39737;43.334;21.936;2023-10-08T08:08:44;8.68;;;3.28;;
53835;SDS011;39737;43.334;21.936;2023-10-08T08:11:31;7.28;;;3.45;;
53835;SDS011;39737;43.334;21.936;2023-10-08T08:14:21;5.57;;;3.45;;
53835;SDS011;39737;43.334;21.936;2023-10-08T08:17:10;5.63;;;2.75;;
53835;SDS011;39737;43.334;21.936;2023-10-08T08:20:00;9.73;;;3.17;;
53835;SDS011;39737;43.334;21.936;2023-10-08T08:23:03;10.68;;;3.33;;
53835;SDS011;39737;43.334;21.936;2023-10-08T08:25:52;6.25;;;3.10;;
53835;SDS011;39737;43.334;21.936;2023-10-08T08:28:55;7.53;;;3.03;;
53835;SDS011;39737;43.334;21.936;2023-10-08T08:31:42;6.30;;;3.38;;
53835;SDS011;39737;43.334;21.936;2023-10-08T08:34:35;8.98;;;3.58;;
53835;SDS011;39737;43.334;21.936;2023-10-08T08:37:22;11.45;;;3.42;;
53835;SDS011;39737;43.334;21.936;2023-10-08T08:40:11;10.27;;;3.35;;
53835;SDS011;39737;43.334;21.936;2023-10-08T08:43:04;9.73;;;3.65;;
53835;SDS011;39737;43.334;21.936;2023-10-08T08:45:51;4.43;;;2.88;;
53835;SDS011;39737;43.334;21.936;2023-10-08T08:48:37;4.97;;;2.67;;
53835;SDS011;39737;43.334;21.936;2023-10-08T08:51:24;8.07;;;3.83;;
53835;SDS011;39737;43.334;21.936;2023-10-08T08:54:11;7.53;;;3.72;;
53835;SDS011;39737;43.334;21.936;2023-10-08T08:57:01;6.47;;;3.72;;
53835;SDS011;39737;43.334;21.936;2023-10-08T08:59:52;10.57;;;3.53;;
53835;SDS011;39737;43.334;21.936;2023-10-08T09:02:41;8.45;;;3.45;;
53835;SDS011;39737;43.334;21.936;2023-10-08T09:05:27;5.75;;;3.70;;
53835;SDS011;39737;43.334;21.936;2023-10-08T09:08:21;5.95;;;3.03;;
53835;SDS011;39737;43.334;21.936;2023-10-08T09:11:13;9.55;;;4.47;;
53835;SDS011;39737;43.334;21.936;2023-10-08T09:14:01;5.85;;;2.55;;
53835;SDS011;39737;43.334;21.936;2023-10-08T09:16:49;7.38;;;3.08;;
53835;SDS011;39737;43.334;21.936;2023-10-08T09:19:38;6.78;;;3.38;;
53835;SDS011;39737;43.334;21.936;2023-10-08T09:22:25;7.03;;;2.85;;
53835;SDS011;39737;43.334;21.936;2023-10-08T09:25:15;7.65;;;3.30;;
53835;SDS011;39737;43.334;21.936;2023-10-08T09:28:08;9.68;;;2.90;;
53835;SDS011;39737;43.334;21.936;2023-10-08T09:30:54;4.25;;;3.33;;
53835;SDS011;39737;43.334;21.936;2023-10-08T09:33:54;5.82;;;3.63;;
53835;SDS011;39737;43.334;21.936;2023-10-08T09:36:41;11.05;;;3.38;;
53835;SDS011;39737;43.334;21.936;2023-10-08T09:39:29;9.05;;;4.13;;
53835;SDS011;39737;43.334;21.936;2023-10-08T09:45:09;8.45;;;3.53;;
53835;SDS011;39737;43.334;21.936;2023-10-08T09:47:56;6.50;;;3.58;;
53835;SDS011;39737;43.334;21.936;2023-10-08T09:50:43;6.22;;;3.15;;
53835;SDS011;39737;43.334;21.936;2023-10-08T09:53:39;5.57;;;3.25;;
53835;SDS011;39737;43.334;21.936;2023-10-08T09:56:28;6.13;;;3.13;;
53835;SDS011;39737;43.334;21.936;2023-10-08T09:59:14;9.13;;;3.20;;
53835;SDS011;39737;43.334;21.936;2023-10-08T10:02:01;8.90;;;2.90;;
53835;SDS011;39737;43.334;21.936;2023-10-08T10:04:49;10.38;;;3.70;;
53835;SDS011;39737;43.334;21.936;2023-10-08T10:07:37;4.65;;;2.90;;
53835;SDS011;39737;43.334;21.936;2023-10-08T10:10:26;6.00;;;3.00;;
53835;SDS011;39737;43.334;21.936;2023-10-08T10:13:13;10.30;;;2.72;;
53835;SDS011;39737;43.334;21.936;2023-10-08T10:16:00;9.55;;;3.78;;
53835;SDS011;39737;43.334;21.936;2023-10-08T10:18:54;6.05;;;3.20;;
53835;SDS011;39737;43.334;21.936;2023-10-08T10:21:43;3.88;;;2.47;;
53835;SDS011;39737;43.334;21.936;2023-10-08T10:24:35;6.15;;;3.95;;
53835;SDS011;39737;43.334;21.936;2023-10-08T10:27:24;6.05;;;3.25;;
53835;SDS011;39737;43.334;21.936;2023-10-08T10:30:12;4.05;;;2.42;;
53835;SDS011;39737;43.334;21.936;2023-10-08T10:33:09;10.20;;;4.03;;
53835;SDS011;39737;43.334;21.936;2023-10-08T10:36:00;7.93;;;3.53;;
53835;SDS011;39737;43.334;21.936;2023-10-08T10:39:00;6.28;;;2.88;;
53835;SDS011;39737;43.334;21.936;2023-10-08T10:41:47;6.43;;;2.70;;
53835;SDS011;39737;43.334;21.936;2023-10-08T10:44:42;5.05;;;2.95;;
53835;SDS011;39737;43.334;21.936;2023-10-08T10:48:03;4.82;;;2.60;;
53835;SDS011;39737;43.334;21.936;2023-10-08T10:51:16;6.43;;;3.03;;
53835;SDS011;39737;43.334;21.936;2023-10-08T10:54:04;31.10;;;9.73;;
53835;SDS011;39737;43.334;21.936;2023-10-08T10:56:56;11.10;;;3.75;;
53835;SDS011;39737;43.334;21.936;2023-10-08T11:00:08;6.28;;;2.40;;
53835;SDS011;39737;43.334;21.936;2023-10-08T11:03:15;8.43;;;3.25;;
53835;SDS011;39737;43.334;21.936;2023-10-08T11:06:10;4.07;;;2.20;;
53835;SDS011;39737;43.334;21.936;2023-10-08T11:09:03;8.65;;;2.85;;
53835;SDS011;39737;43.334;21.936;2023-10-08T11:11:54;7.35;;;2.35;;
53835;SDS011;39737;43.334;21.936;2023-10-08T11:14:47;13.80;;;2.92;;
53835;SDS011;39737;43.334;21.936;2023-10-08T11:17:46;4.93;;;2.25;;
53835;SDS011;39737;43.334;21.936;2023-10-08T11:20:35;5.47;;;2.25;;
53835;SDS011;39737;43.334;21.936;2023-10-08T11:23:37;4.28;;;2.85;;
53835;SDS011;39737;43.334;21.936;2023-10-08T11:26:29;10.20;;;2.58;;
53835;SDS011;39737;43.334;21.936;2023-10-08T11:29:28;7.18;;;2.20;;
53835;SDS011;39737;43.334;21.936;2023-10-08T11:32:15;10.63;;;3.28;;
53835;SDS011;39737;43.334;21.936;2023-10-08T11:38:14;5.13;;;3.33;;
53835;SDS011;39737;43.334;21.936;2023-10-08T11:41:14;7.13;;;2.58;;
53835;SDS011;39737;43.334;21.936;2023-10-08T11:44:13;7.38;;;3.40;;
53835;SDS011;39737;43.334;21.936;2023-10-08T11:47:05;8.40;;;3.95;;
53835;SDS011;39737;43.334;21.936;2023-10-08T11:50:02;5.55;;;2.60;;
53835;SDS011;39737;43.334;21.936;2023-10-08T11:53:11;9.43;;;4.15;;
53835;SDS011;39737;43.334;21.936;2023-10-08T11:56:18;7.97;;;2.75;;
53835;SDS011;39737;43.334;21.936;2023-10-08T11:59:13;6.75;;;2.95;;
53835;SDS011;39737;43.334;21.936;2023-10-08T12:01:59;4.05;;;1.85;;
53835;SDS011;39737;43.334;21.936;2023-10-08T12:04:45;7.30;;;2.15;;
53835;SDS011;39737;43.334;21.936;2023-10-08T12:07:33;7.45;;;2.00;;
53835;SDS011;39737;43.334;21.936;2023-10-08T12:10:22;4.15;;;2.38;;
53835;SDS011;39737;43.334;21.936;2023-10-08T12:13:09;2.75;;;1.70;;
53835;SDS011;39737;43.334;21.936;2023-10-08T12:15:56;2.70;;;1.40;;
53835;SDS011;39737;43.334;21.936;2023-10-08T12:18:55;3.20;;;2.15;;
53835;SDS011;39737;43.334;21.936;2023-10-08T12:21:45;3.05;;;1.48;;
53835;SDS011;39737;43.334;21.936;2023-10-08T12:24:35;5.82;;;2.10;;
53835;SDS011;39737;43.334;21.936;2023-10-08T12:27:38;4.13;;;2.35;;
53835;SDS011;39737;43.334;21.936;2023-10-08T12:30:26;2.95;;;1.50;;
53835;SDS011;39737;43.334;21.936;2023-10-08T12:33:27;4.38;;;2.53;;
53835;SDS011;39737;43.334;21.936;2023-10-08T12:36:15;4.15;;;2.67;;
53835;SDS011;39737;43.334;21.936;2023-10-08T12:39:03;6.93;;;2.28;;
53835;SDS011;39737;43.334;21.936;2023-10-08T12:42:00;6.07;;;3.10;;
53835;SDS011;39737;43.334;21.936;2023-10-08T12:44:51;5.63;;;2.35;;
53835;SDS011;39737;43.334;21.936;2023-10-08T12:47:38;3.90;;;1.63;;
53835;SDS011;39737;43.334;21.936;2023-10-08T12:50:25;6.15;;;2.97;;
53835;SDS011;39737;43.334;21.936;2023-10-08T12:53:29;14.80;;;2.63;;
53835;SDS011;39737;43.334;21.936;2023-10-08T12:56:26;10.52;;;3.72;;
53835;SDS011;39737;43.334;21.936;2023-10-08T12:59:21;7.97;;;2.08;;
53835;SDS011;39737;43.334;21.936;2023-10-08T13:02:08;3.53;;;2.10;;
53835;SDS011;39737;43.334;21.936;2023-10-08T13:04:59;3.63;;;2.17;;
53835;SDS011;39737;43.334;21.936;2023-10-08T13:07:46;3.40;;;1.65;;
53835;SDS011;39737;43.334;21.936;2023-10-08T13:10:34;5.07;;;2.10;;
53835;SDS011;39737;43.334;21.936;2023-10-08T13:13:22;7.20;;;2.50;;
53835;SDS011;39737;43.334;21.936;2023-10-08T13:16:16;3.88;;;2.00;;
53835;SDS011;39737;43.334;21.936;2023-10-08T13:19:04;8.82;;;2.63;;
53835;SDS011;39737;43.334;21.936;2023-10-08T13:21:52;6.10;;;1.95;;
53835;SDS011;39737;43.334;21.936;2023-10-08T13:24:40;9.13;;;3.20;;
53835;SDS011;39737;43.334;21.936;2023-10-08T13:27:27;5.03;;;1.77;;
53835;SDS011;39737;43.334;21.936;2023-10-08T13:30:15;11.35;;;1.85;;
53835;SDS011;39737;43.334;21.936;2023-10-08T13:33:01;13.57;;;1.48;;
53835;SDS011;39737;43.334;21.936;2023-10-08T13:35:49;4.55;;;2.15;;
53835;SDS011;39737;43.334;21.936;2023-10-08T13:38:52;7.60;;;1.50;;
53835;SDS011;39737;43.334;21.936;2023-10-08T13:41:38;7.40;;;2.58;;
53835;SDS011;39737;43.334;21.936;2023-10-08T13:44:25;9.10;;;1.98;;
53835;SDS011;39737;43.334;21.936;2023-10-08T13:47:15;3.78;;;1.65;;
53835;SDS011;39737;43.334;21.936;2023-10-08T13:50:03;5.10;;;1.85;;
53835;SDS011;39737;43.334;21.936;2023-10-08T13:52:57;11.13;;;4.45;;
53835;SDS011;39737;43.334;21.936;2023-10-08T13:55:44;5.40;;;2.60;;
53835;SDS011;39737;43.334;21.936;2023-10-08T13:58:31;4.25;;;2.25;;
53835;SDS011;39737;43.334;21.936;2023-10-08T14:01:21;6.50;;;2.25;;
53835;SDS011;39737;43.334;21.936;2023-10-08T14:04:07;4.78;;;1.90;;
53835;SDS011;39737;43.334;21.936;2023-10-08T14:06:58;3.97;;;1.70;;
53835;SDS011;39737;43.334;21.936;2023-10-08T14:10:04;3.22;;;1.70;;
53835;SDS011;39737;43.334;21.936;2023-10-08T14:12:54;5.82;;;1.60;;
53835;SDS011;39737;43.334;21.936;2023-10-08T14:15:40;3.22;;;1.50;;
53835;SDS011;39737;43.334;21.936;2023-10-08T14:18:32;1.95;;;1.15;;
53835;SDS011;39737;43.334;21.936;2023-10-08T14:21:26;7.40;;;1.60;;
53835;SDS011;39737;43.334;21.936;2023-10-08T14:24:27;8.25;;;2.25;;
53835;SDS011;39737;43.334;21.936;2023-10-08T14:27:17;4.20;;;1.77;;
53835;SDS011;39737;43.334;21.936;2023-10-08T14:30:11;12.18;;;1.63;;
53835;SDS011;39737;43.334;21.936;2023-10-08T14:33:01;3.35;;;1.25;;
53835;SDS011;39737;43.334;21.936;2023-10-08T14:35:50;8.50;;;1.40;;
53835;SDS011;39737;43.334;21.936;2023-10-08T14:38:54;5.03;;;1.50;;
53835;SDS011;39737;43.334;21.936;2023-10-08T14:41:59;7.00;;;1.75;;
53835;SDS011;39737;43.334;21.936;2023-10-08T14:45:04;7.68;;;2.40;;
53835;SDS011;39737;43.334;21.936;2023-10-08T14:47:57;10.55;;;2.05;;
53835;SDS011;39737;43.334;21.936;2023-10-08T14:50:43;3.25;;;1.98;;
53835;SDS011;39737;43.334;21.936;2023-10-08T14:53:32;5.80;;;1.92;;
53835;SDS011;39737;43.334;21.936;2023-10-08T14:56:19;4.70;;;1.65;;
53835;SDS011;39737;43.334;21.936;2023-10-08T14:59:06;10.77;;;3.22;;
53835;SDS011;39737;43.334;21.936;2023-10-08T15:01:52;5.88;;;1.42;;
53835;SDS011;39737;43.334;21.936;2023-10-08T15:04:39;10.38;;;2.63;;
53835;SDS011;39737;43.334;21.936;2023-10-08T15:07:25;3.13;;;1.85;;
53835;SDS011;39737;43.334;21.936;2023-10-08T15:10:15;10.02;;;1.92;;
53835;SDS011;39737;43.334;21.936;2023-10-08T15:13:01;9.70;;;1.77;;
53835;SDS011;39737;43.334;21.936;2023-10-08T15:15:47;10.57;;;1.88;;
53835;SDS011;39737;43.334;21.936;2023-10-08T15:18:33;14.52;;;2.25;;
53835;SDS011;39737;43.334;21.936;2023-10-08T15:21:29;6.82;;;2.15;;
53835;SDS011;39737;43.334;21.936;2023-10-08T15:24:22;2.60;;;1.70;;
53835;SDS011;39737;43.334;21.936;2023-10-08T15:27:09;5.68;;;1.63;;
53835;SDS011;39737;43.334;21.936;2023-10-08T15:29:57;7.47;;;1.30;;
53835;SDS011;39737;43.334;21.936;2023-10-08T15:32:47;6.03;;;2.13;;
53835;SDS011;39737;43.334;21.936;2023-10-08T15:35:52;10.88;;;1.60;;
53835;SDS011;39737;43.334;21.936;2023-10-08T15:38:39;16.77;;;1.63;;
53835;SDS011;39737;43.334;21.936;2023-10-08T15:41:25;11.38;;;2.25;;
53835;SDS011;39737;43.334;21.936;2023-10-08T15:44:14;8.13;;;1.65;;
53835;SDS011;39737;43.334;21.936;2023-10-08T15:47:01;12.27;;;1.50;;
53835;SDS011;39737;43.334;21.936;2023-10-08T15:49:52;5.07;;;1.48;;
53835;SDS011;39737;43.334;21.936;2023-10-08T15:52:37;3.97;;;1.83;;
53835;SDS011;39737;43.334;21.936;2023-10-08T15:55:26;9.80;;;2.05;;
53835;SDS011;39737;43.334;21.936;2023-10-08T15:58:15;4.70;;;2.00;;
53835;SDS011;39737;43.334;21.936;2023-10-08T16:01:01;5.55;;;2.33;;
53835;SDS011;39737;43.334;21.936;2023-10-08T16:03:48;22.70;;;2.28;;
53835;SDS011;39737;43.334;21.936;2023-10-08T16:06:44;22.17;;;1.67;;
53835;SDS011;39737;43.334;21.936;2023-10-08T16:09:38;9.93;;;2.13;;
53835;SDS011;39737;43.334;21.936;2023-10-08T16:12:27;7.07;;;1.90;;
53835;SDS011;39737;43.334;21.936;2023-10-08T16:15:13;5.53;;;2.22;;
53835;SDS011;39737;43.334;21.936;2023-10-08T16:18:00;9.60;;;1.58;;
53835;SDS011;39737;43.334;21.936;2023-10-08T16:20:49;8.40;;;1.38;;
53835;SDS011;39737;43.334;21.936;2023-10-08T16:23:38;14.25;;;3.10;;
53835;SDS011;39737;43.334;21.936;2023-10-08T16:30:40;7.95;;;2.13;;
53835;SDS011;39737;43.334;21.936;2023-10-08T16:33:29;4.75;;;2.35;;
53835;SDS011;39737;43.334;21.936;2023-10-08T16:36:16;10.70;;;2.47;;
53835;SDS011;39737;43.334;21.936;2023-10-08T16:39:04;8.77;;;2.17;;
53835;SDS011;39737;43.334;21.936;2023-10-08T16:41:51;12.70;;;1.95;;
53835;SDS011;39737;43.334;21.936;2023-10-08T16:44:39;5.38;;;2.58;;
53835;SDS011;39737;43.334;21.936;2023-10-08T16:47:25;7.85;;;2.10;;
53835;SDS011;39737;43.334;21.936;2023-10-08T16:50:11;4.90;;;2.05;;
53835;SDS011;39737;43.334;21.936;2023-10-08T16:52:57;17.50;;;2.88;;
53835;SDS011;39737;43.334;21.936;2023-10-08T17:01:57;11.30;;;3.53;;
53835;SDS011;39737;43.334;21.936;2023-10-08T17:04:49;7.72;;;2.67;;
53835;SDS011;39737;43.334;21.936;2023-10-08T17:07:45;4.68;;;2.20;;
53835;SDS011;39737;43.334;21.936;2023-10-08T17:10:32;13.00;;;1.70;;
53835;SDS011;39737;43.334;21.936;2023-10-08T17:13:18;10.30;;;2.67;;
53835;SDS011;39737;43.334;21.936;2023-10-08T17:16:04;12.73;;;2.60;;
53835;SDS011;39737;43.334;21.936;2023-10-08T17:18:53;4.05;;;1.48;;
53835;SDS011;39737;43.334;21.936;2023-10-08T17:21:40;8.57;;;1.88;;
53835;SDS011;39737;43.334;21.936;2023-10-08T17:24:27;2.97;;;1.02;;
53835;SDS011;39737;43.334;21.936;2023-10-08T17:27:14;7.88;;;1.85;;